Time;durP1;ratioP1;P1;durP2;ratioP2;P2;SDS_P1;SDS_P2;PMS_P1;PMS_P2;Temp;Humidity;BMP_temperature;BMP_pressure;BME280_temperature;BME280_humidity;BME280_pressure;Samples;Min_cycle;Max_cycle;Signal;HPM_P1;HPM_P2
2021/06/11 00:03:43;;;;;;;13.93;12.80;;;18.80;99.90;;;;;;10399695;28;20230;-78
2021/06/11 00:08:45;;;;;;;12.53;11.53;;;18.80;99.90;;;;;;10396468;28;20253;-79
2021/06/11 00:13:49;;;;;;;14.00;12.80;;;18.80;99.90;;;;;;10399936;28;20232;-79
2021/06/11 00:18:52;;;;;;;12.57;11.50;;;18.70;99.90;;;;;;10396495;28;20229;-79
2021/06/11 00:23:54;;;;;;;13.00;12.00;;;18.70;99.90;;;;;;10409758;28;20206;-79
2021/06/11 00:28:56;;;;;;;12.77;11.60;;;18.60;99.90;;;;;;10391719;28;20774;-79
2021/06/11 00:33:59;;;;;;;12.17;11.27;;;18.60;99.90;;;;;;10401541;28;20237;-79
2021/06/11 00:39:00;;;;;;;10.83;10.03;;;18.60;99.90;;;;;;10399662;28;20222;-79
2021/06/11 00:44:02;;;;;;;10.50;9.70;;;18.50;99.90;;;;;;10405193;28;20210;-79
2021/06/11 00:49:05;;;;;;;10.70;9.70;;;18.50;99.90;;;;;;10422570;28;20225;-79
2021/06/11 00:54:07;;;;;;;10.60;9.70;;;18.50;99.90;;;;;;10408884;28;20285;-79
2021/06/11 00:59:09;;;;;;;11.07;10.27;;;18.50;99.90;;;;;;10389477;28;20225;-79
2021/06/11 01:04:13;;;;;;;10.47;9.67;;;18.40;99.90;;;;;;10389317;28;20739;-79
2021/06/11 01:09:15;;;;;;;11.07;10.20;;;18.40;99.90;;;;;;10409515;28;20225;-79
2021/06/11 01:14:17;;;;;;;12.13;10.73;;;18.40;99.90;;;;;;10387609;28;20639;-79
2021/06/11 01:19:26;;;;;;;10.00;9.20;;;18.40;99.90;;;;;;10391579;28;20257;-78
2021/06/11 01:24:33;;;;;;;10.97;10.17;;;18.40;99.90;;;;;;10412073;28;20221;-78
2021/06/11 01:29:37;;;;;;;10.67;9.87;;;18.40;99.90;;;;;;10414996;28;20217;-78
2021/06/11 01:34:40;;;;;;;10.90;10.00;;;18.30;99.90;;;;;;10413698;28;20281;-78
2021/06/11 01:39:44;;;;;;;11.63;10.63;;;18.30;99.90;;;;;;10363161;28;20327;-78
2021/06/11 01:44:50;;;;;;;11.37;10.33;;;18.30;99.90;;;;;;10369420;28;20209;-79
2021/06/11 01:49:52;;;;;;;10.10;9.40;;;18.20;99.90;;;;;;10412670;28;20222;-78
2021/06/11 01:54:55;;;;;;;16.10;11.40;;;18.20;99.90;;;;;;10408916;28;20245;-78
2021/06/11 01:59:59;;;;;;;11.07;10.23;;;18.20;99.90;;;;;;10374034;28;20253;-78
2021/06/11 02:05:02;;;;;;;11.00;10.00;;;18.10;99.90;;;;;;10409427;28;20209;-78
2021/06/11 02:10:08;;;;;;;15.03;10.93;;;18.10;99.90;;;;;;10407510;28;20297;-78
2021/06/11 02:15:12;;;;;;;10.63;9.73;;;18.10;99.90;;;;;;10391247;28;20204;-78
2021/06/11 02:20:15;;;;;;;10.70;9.77;;;18.10;99.90;;;;;;10414875;28;21150;-78
2021/06/11 02:25:21;;;;;;;11.07;10.27;;;18.00;99.90;;;;;;10397429;28;20726;-77
2021/06/11 02:30:24;;;;;;;11.67;10.53;;;18.00;99.90;;;;;;10402153;28;20210;-78
2021/06/11 02:35:26;;;;;;;11.83;10.93;;;18.00;99.90;;;;;;10403881;28;20210;-78
2021/06/11 02:40:28;;;;;;;11.07;10.27;;;18.00;99.90;;;;;;10410692;28;20702;-78
2021/06/11 02:45:36;;;;;;;11.30;10.40;;;17.90;99.90;;;;;;10415191;28;20201;-77
2021/06/11 02:50:45;;;;;;;11.03;10.03;;;17.90;99.90;;;;;;10383214;28;20230;-78
2021/06/11 02:55:49;;;;;;;11.50;10.60;;;17.90;99.90;;;;;;10407180;28;20722;-78
2021/06/11 03:00:53;;;;;;;11.53;10.73;;;17.90;99.90;;;;;;10388280;28;20249;-78
2021/06/11 03:05:58;;;;;;;11.60;10.70;;;17.80;99.90;;;;;;10384042;28;20214;-78
2021/06/11 03:11:04;;;;;;;11.33;10.43;;;17.80;99.90;;;;;;10408919;28;20242;-78
2021/06/11 03:16:07;;;;;;;11.73;10.83;;;17.80;99.90;;;;;;10410782;28;20635;-78
2021/06/11 03:21:15;;;;;;;11.67;10.77;;;17.70;99.90;;;;;;10393628;28;20233;-78
2021/06/11 03:26:23;;;;;;;11.60;10.70;;;17.70;99.90;;;;;;10380571;28;20199;-78
2021/06/11 03:31:29;;;;;;;11.30;10.50;;;17.70;99.90;;;;;;10372927;28;20673;-78
2021/06/11 03:36:36;;;;;;;11.33;10.43;;;17.80;99.90;;;;;;10395119;28;20681;-78
2021/06/11 03:41:38;;;;;;;11.03;10.23;;;17.70;99.90;;;;;;10401806;28;20305;-78
2021/06/11 03:46:45;;;;;;;11.50;10.70;;;17.70;99.90;;;;;;10354667;28;20283;-78
2021/06/11 03:51:47;;;;;;;11.37;10.47;;;17.70;99.90;;;;;;10390406;28;20226;-78
2021/06/11 03:56:54;;;;;;;11.77;10.87;;;17.80;99.90;;;;;;10406415;28;20581;-77
2021/06/11 04:01:58;;;;;;;11.80;10.90;;;17.70;99.90;;;;;;10373183;28;20260;-78
2021/06/11 04:07:06;;;;;;;11.10;10.30;;;17.80;99.90;;;;;;10390671;28;20216;-78
2021/06/11 04:12:09;;;;;;;12.30;11.40;;;17.80;99.90;;;;;;10368775;28;20872;-77
2021/06/11 04:17:17;;;;;;;12.20;11.30;;;17.90;99.90;;;;;;10398540;28;21248;-77
2021/06/11 04:22:23;;;;;;;11.73;10.73;;;18.00;99.90;;;;;;10386662;28;20325;-79
2021/06/11 04:27:26;;;;;;;12.83;11.87;;;18.00;99.90;;;;;;10409364;28;20204;-78
2021/06/11 04:32:30;;;;;;;12.00;11.07;;;18.10;99.90;;;;;;10387101;28;20316;-78
2021/06/11 04:37:32;;;;;;;13.03;11.90;;;18.10;99.90;;;;;;10391147;28;20917;-78
2021/06/11 04:42:35;;;;;;;11.13;10.23;;;18.20;99.90;;;;;;10398157;28;20649;-78
2021/06/11 04:47:38;;;;;;;12.57;11.47;;;18.20;99.90;;;;;;10399849;28;20194;-78
2021/06/11 04:52:39;;;;;;;13.10;11.90;;;18.20;99.90;;;;;;10412310;28;20591;-78
2021/06/11 04:57:41;;;;;;;12.90;11.83;;;18.30;99.90;;;;;;10405892;28;20248;-77
2021/06/11 05:02:44;;;;;;;11.90;11.00;;;18.40;99.90;;;;;;10373064;28;20229;-77
2021/06/11 05:07:46;;;;;;;13.07;11.97;;;18.50;99.90;;;;;;10393406;28;20264;-78
2021/06/11 05:12:48;;;;;;;12.90;11.60;;;18.50;99.90;;;;;;10410254;28;20663;-77
2021/06/11 05:17:51;;;;;;;13.03;11.90;;;18.60;99.90;;;;;;10414680;28;20213;-77
2021/06/11 05:22:52;;;;;;;12.10;11.10;;;18.60;99.90;;;;;;10416119;28;20264;-77
2021/06/11 05:27:54;;;;;;;13.20;12.17;;;18.70;99.90;;;;;;10415119;28;20248;-77
2021/06/11 05:32:58;;;;;;;9.90;9.20;;;18.70;99.90;;;;;;10402540;28;20232;-77
2021/06/11 05:38:02;;;;;;;10.17;9.37;;;18.80;99.90;;;;;;10381184;28;20206;-77
2021/06/11 05:43:04;;;;;;;9.97;9.27;;;18.90;99.90;;;;;;10413428;28;20309;-77
2021/06/11 05:48:08;;;;;;;12.93;11.73;;;19.00;99.90;;;;;;10395361;28;20202;-77
2021/06/11 05:53:10;;;;;;;12.73;11.53;;;19.20;99.90;;;;;;10414361;28;20313;-76
2021/06/11 05:58:12;;;;;;;11.97;10.80;;;19.30;99.90;;;;;;10390023;28;20291;-78
2021/06/11 06:03:16;;;;;;;12.50;11.50;;;19.40;99.90;;;;;;10386883;28;20226;-78
2021/06/11 06:08:18;;;;;;;11.80;10.90;;;19.50;99.90;;;;;;10395811;28;20206;-77
2021/06/11 06:13:20;;;;;;;12.90;11.60;;;19.60;99.90;;;;;;10409752;28;20218;-78
2021/06/11 06:18:23;;;;;;;12.90;11.90;;;19.70;99.90;;;;;;10413049;28;20209;-77
2021/06/11 06:23:25;;;;;;;11.73;10.53;;;19.80;99.90;;;;;;10399603;28;20226;-77
2021/06/11 06:28:26;;;;;;;13.00;11.83;;;19.90;99.90;;;;;;10375601;28;20228;-77
2021/06/11 06:33:29;;;;;;;17.27;15.70;;;20.00;99.90;;;;;;10388671;28;20217;-78
2021/06/11 06:38:31;;;;;;;13.70;12.63;;;20.10;99.90;;;;;;10390409;28;20222;-77
2021/06/11 06:43:33;;;;;;;13.53;12.37;;;20.30;99.90;;;;;;10391994;28;20611;-77
2021/06/11 06:48:36;;;;;;;12.20;11.20;;;20.50;99.90;;;;;;10364219;28;20214;-78
2021/06/11 06:53:37;;;;;;;11.63;10.40;;;20.80;99.90;;;;;;10412385;28;20230;-77
2021/06/11 06:58:40;;;;;;;11.50;10.40;;;21.10;99.90;;;;;;10412857;28;20248;-77
2021/06/11 07:03:44;;;;;;;11.80;9.63;;;21.40;99.90;;;;;;10411468;28;20228;-78
2021/06/11 07:08:47;;;;;;;13.80;12.43;;;21.60;99.90;;;;;;10410313;28;20641;-78
2021/06/11 07:13:49;;;;;;;11.47;10.47;;;21.90;99.90;;;;;;10410981;28;20563;-78
2021/06/11 07:18:52;;;;;;;12.13;10.97;;;22.20;99.90;;;;;;10411274;28;20694;-78
2021/06/11 07:23:54;;;;;;;12.87;11.53;;;22.70;99.90;;;;;;10412072;28;20252;-78
2021/06/11 07:28:56;;;;;;;13.80;12.03;;;23.20;99.90;;;;;;10387634;28;20217;-78
2021/06/11 07:33:59;;;;;;;11.00;9.87;;;23.70;99.90;;;;;;10411747;28;20268;-78
2021/06/11 07:39:00;;;;;;;13.50;10.20;;;24.20;99.90;;;;;;10382021;28;20760;-78
2021/06/11 07:44:02;;;;;;;16.00;10.50;;;24.70;99.90;;;;;;10395246;28;20678;-77
2021/06/11 07:49:05;;;;;;;10.93;9.97;;;25.20;99.90;;;;;;10397072;28;20232;-77
2021/06/11 07:54:07;;;;;;;10.00;9.10;;;25.70;99.90;;;;;;10393484;28;20252;-77
2021/06/11 07:59:09;;;;;;;11.73;8.50;;;26.30;99.90;;;;;;10408606;28;20229;-77
2021/06/11 08:04:12;;;;;;;9.60;8.70;;;26.70;99.30;;;;;;10394158;28;20212;-77
2021/06/11 08:09:13;;;;;;;8.63;7.93;;;27.20;96.90;;;;;;10418380;28;20611;-77
2021/06/11 08:14:15;;;;;;;10.03;9.13;;;27.60;94.90;;;;;;10419462;28;20717;-77
2021/06/11 08:19:18;;;;;;;10.03;9.13;;;28.10;92.80;;;;;;10384429;28;20213;-78
2021/06/11 08:24:20;;;;;;;10.73;9.63;;;28.50;91.70;;;;;;10400398;28;20204;-78
2021/06/11 08:29:23;;;;;;;10.23;9.30;;;28.90;90.20;;;;;;10404678;28;20267;-78
2021/06/11 08:34:44;;;;;;;14.00;9.20;;;29.30;89.10;;;;;;10385778;28;20264;-78
2021/06/11 08:39:47;;;;;;;11.03;7.60;;;29.40;85.00;;;;;;10388877;28;20312;-78
2021/06/11 08:44:50;;;;;;;10.07;9.17;;;29.60;83.20;;;;;;10384435;28;20195;-78
2021/06/11 08:49:54;;;;;;;9.40;7.33;;;29.80;80.60;;;;;;10383511;28;20225;-78
2021/06/11 08:54:56;;;;;;;10.63;9.47;;;30.00;81.40;;;;;;10393282;28;20356;-77
2021/06/11 08:59:58;;;;;;;8.43;7.73;;;30.30;77.30;;;;;;10416596;28;20217;-79
2021/06/11 09:05:01;;;;;;;10.13;7.73;;;30.50;78.20;;;;;;10391651;28;20624;-78
2021/06/11 09:10:09;;;;;;;8.03;7.43;;;30.80;76.30;;;;;;10407295;28;20747;-78
2021/06/11 09:15:13;;;;;;;9.27;8.60;;;31.10;72.50;;;;;;10400198;28;20194;-78
2021/06/11 09:20:21;;;;;;;8.33;7.70;;;31.20;71.40;;;;;;10401368;28;20314;-78
2021/06/11 09:25:28;;;;;;;9.20;8.50;;;31.40;69.90;;;;;;10400521;28;20198;-79
2021/06/11 09:30:49;;;;;;;9.23;8.30;;;31.80;70.60;;;;;;10403890;28;20359;-78
2021/06/11 09:35:54;;;;;;;9.10;8.40;;;32.40;64.00;;;;;;10404301;28;20226;-79
2021/06/11 09:41:08;;;;;;;9.97;9.17;;;32.70;65.10;;;;;;10385452;28;20231;-79
2021/06/11 09:46:12;;;;;;;8.90;8.17;;;33.60;59.50;;;;;;10400431;28;20205;-78
2021/06/11 09:51:16;;;;;;;9.10;8.20;;;34.30;59.70;;;;;;10380453;28;20245;-78
2021/06/11 09:56:22;;;;;;;9.50;8.90;;;34.70;55.40;;;;;;10382514;28;20198;-79
2021/06/11 10:01:34;;;;;;;9.50;8.70;;;36.00;52.90;;;;;;10397421;28;20218;-78
2021/06/11 10:06:37;;;;;;;8.63;7.93;;;37.60;50.30;;;;;;10400902;28;20206;-78
2021/06/11 10:11:39;;;;;;;11.50;8.85;;;38.60;46.30;;;;;;10377711;28;20253;-78
2021/06/11 10:16:48;;;;;;;9.60;8.95;;;39.00;46.40;;;;;;10386796;28;20259;-78
2021/06/11 10:21:51;;;;;;;9.67;8.97;;;39.20;44.50;;;;;;10406179;28;20275;-78
2021/06/11 10:26:53;;;;;;;9.60;8.60;;;37.80;43.50;;;;;;10416106;28;20255;-78
2021/06/11 10:31:55;;;;;;;9.70;8.93;;;35.50;46.40;;;;;;10414856;28;20271;-78
2021/06/11 10:36:58;;;;;;;9.70;8.93;;;33.60;48.50;;;;;;10414871;28;20225;-78
2021/06/11 10:42:07;;;;;;;12.20;11.13;;;32.10;52.00;;;;;;10414149;28;20218;-77
2021/06/11 10:47:33;;;;;;;10.17;9.47;;;31.00;51.70;;;;;;10396193;28;20202;-77
2021/06/11 10:52:38;;;;;;;10.60;9.90;;;30.00;54.20;;;;;;10394735;28;20226;-79
2021/06/11 10:57:40;;;;;;;10.87;10.00;;;29.30;54.20;;;;;;10385936;28;20236;-78
2021/06/11 11:02:48;;;;;;;11.13;10.33;;;28.70;57.10;;;;;;10375468;28;20300;-79
2021/06/11 11:07:52;;;;;;;9.63;8.87;;;28.30;56.00;;;;;;10404945;28;20236;-79
2021/06/11 11:13:00;;;;;;;10.93;10.00;;;27.90;57.70;;;;;;10395877;28;20221;-78
2021/06/11 11:18:03;;;;;;;10.97;9.97;;;27.60;57.80;;;;;;10393016;28;20285;-79
2021/06/11 11:23:08;;;;;;;10.73;9.93;;;27.40;59.60;;;;;;10387655;28;20625;-78
2021/06/11 11:28:10;;;;;;;9.50;8.70;;;27.10;58.00;;;;;;10399812;28;20283;-79
2021/06/11 11:33:13;;;;;;;9.60;8.90;;;27.00;58.80;;;;;;10390269;28;20690;-78
2021/06/11 11:38:16;;;;;;;10.93;10.13;;;26.80;60.40;;;;;;10394285;28;20206;-78
2021/06/11 11:43:18;;;;;;;10.10;9.30;;;26.80;61.20;;;;;;10389963;28;20240;-78
2021/06/11 11:48:23;;;;;;;11.87;10.87;;;26.80;62.70;;;;;;10394803;28;20221;-78
2021/06/11 11:53:26;;;;;;;9.90;9.10;;;26.80;61.50;;;;;;10410815;28;20668;-78
2021/06/11 11:58:28;;;;;;;9.80;9.10;;;26.80;64.90;;;;;;10394531;28;20225;-78
2021/06/11 12:03:30;;;;;;;9.40;8.70;;;26.80;68.10;;;;;;10394265;28;20694;-78
2021/06/11 12:08:33;;;;;;;9.70;8.90;;;26.70;69.70;;;;;;10411831;28;20252;-78
2021/06/11 12:13:34;;;;;;;9.83;9.03;;;26.50;65.10;;;;;;10410403;28;20194;-78
2021/06/11 12:18:37;;;;;;;9.37;8.77;;;26.40;70.40;;;;;;10393321;28;20304;-78
2021/06/11 12:23:41;;;;;;;8.10;7.50;;;26.40;61.00;;;;;;10411283;28;20313;-77
2021/06/11 12:28:42;;;;;;;7.97;7.20;;;26.30;59.60;;;;;;10410373;28;20579;-78
2021/06/11 12:33:44;;;;;;;9.10;8.30;;;26.20;59.10;;;;;;10393806;28;20214;-77
2021/06/11 12:38:47;;;;;;;7.90;7.30;;;26.30;61.70;;;;;;10396254;28;20220;-78
2021/06/11 12:49:08;;;;;;;9.53;8.67;;;26.30;61.10;;;;;;10399361;28;20226;-78
2021/06/11 12:54:11;;;;;;;8.70;8.00;;;26.40;58.70;;;;;;10418463;28;20226;-78
2021/06/11 12:59:13;;;;;;;7.97;7.33;;;26.40;59.50;;;;;;10417926;28;20222;-78
2021/06/11 13:04:15;;;;;;;7.53;7.03;;;26.40;60.40;;;;;;10395849;28;20226;-78
2021/06/11 13:09:18;;;;;;;7.00;6.60;;;26.30;58.70;;;;;;10405540;28;20237;-78
2021/06/11 13:14:19;;;;;;;7.17;6.60;;;26.30;58.00;;;;;;10408025;28;20194;-78
2021/06/11 13:19:21;;;;;;;6.90;6.40;;;26.30;57.70;;;;;;10396617;28;20256;-78
2021/06/11 13:24:24;;;;;;;7.90;7.13;;;26.30;59.80;;;;;;10416867;28;20248;-77
2021/06/11 13:29:26;;;;;;;6.80;6.20;;;26.20;56.90;;;;;;10417405;28;20209;-78
2021/06/11 13:34:28;;;;;;;6.53;6.13;;;26.10;58.10;;;;;;10382884;28;20289;-78
2021/06/11 13:39:31;;;;;;;6.50;6.00;;;26.10;55.10;;;;;;10409244;28;20226;-78
2021/06/11 13:44:32;;;;;;;6.23;5.83;;;26.20;57.30;;;;;;10418005;28;20217;-78
2021/06/11 13:49:34;;;;;;;7.00;6.47;;;26.10;55.20;;;;;;10417102;28;20261;-78
2021/06/11 13:54:37;;;;;;;6.33;6.00;;;26.20;56.00;;;;;;10417411;28;20198;-77
2021/06/11 13:59:41;;;;;;;6.37;5.90;;;26.10;55.30;;;;;;10392773;28;20230;-78
2021/06/11 14:04:43;;;;;;;7.90;7.30;;;26.00;56.10;;;;;;10416796;28;20209;-78
2021/06/11 14:09:45;;;;;;;6.60;6.10;;;26.00;55.20;;;;;;10410486;28;20260;-78
2021/06/11 14:14:47;;;;;;;6.73;6.33;;;26.00;57.50;;;;;;10416592;28;20288;-78
2021/06/11 14:19:49;;;;;;;6.93;5.87;;;26.00;56.30;;;;;;10414195;28;20240;-78
2021/06/11 14:24:52;;;;;;;6.77;6.37;;;26.00;57.40;;;;;;10397955;28;20238;-76
2021/06/11 14:29:56;;;;;;;6.20;5.80;;;26.00;55.40;;;;;;10415896;28;20609;-78
2021/06/11 14:34:58;;;;;;;5.97;5.60;;;26.00;56.30;;;;;;10381180;28;20296;-79
2021/06/11 14:40:01;;;;;;;6.80;6.30;;;26.00;57.40;;;;;;10414604;28;20226;-78
2021/06/11 14:45:04;;;;;;;7.23;5.90;;;26.00;58.50;;;;;;10398181;28;20236;-78
2021/06/11 14:50:07;;;;;;;6.70;6.30;;;25.90;59.90;;;;;;10414172;28;20835;-78
2021/06/11 14:55:11;;;;;;;8.03;7.27;;;25.80;58.90;;;;;;10415186;28;20202;-79
2021/06/11 15:00:15;;;;;;;7.37;6.87;;;25.80;59.60;;;;;;10396451;28;20217;-78
2021/06/11 15:05:17;;;;;;;7.80;7.30;;;25.70;61.90;;;;;;10414693;28;20666;-77
2021/06/11 15:10:20;;;;;;;7.40;6.97;;;25.80;59.60;;;;;;10411407;28;20304;-78
2021/06/11 15:15:22;;;;;;;9.30;8.53;;;25.80;60.90;;;;;;10380395;28;20209;-78
2021/06/11 15:20:24;;;;;;;7.47;6.97;;;25.80;61.70;;;;;;10380523;28;20260;-78
2021/06/11 15:25:27;;;;;;;8.00;7.40;;;25.70;61.40;;;;;;10413375;28;20237;-78
2021/06/11 15:30:29;;;;;;;8.40;7.77;;;25.70;60.60;;;;;;10395955;28;20304;-78
2021/06/11 15:35:31;;;;;;;8.27;7.57;;;25.70;61.40;;;;;;10394889;28;20599;-78
2021/06/11 15:40:35;;;;;;;8.37;7.77;;;25.80;63.20;;;;;;10390833;28;20225;-77
2021/06/11 15:45:38;;;;;;;7.90;7.40;;;25.80;61.80;;;;;;10414097;28;20205;-79
2021/06/11 15:50:41;;;;;;;8.33;7.50;;;25.80;65.90;;;;;;10412716;28;20236;-78
2021/06/11 15:55:44;;;;;;;7.63;7.10;;;25.80;62.30;;;;;;10413383;28;20229;-79
2021/06/11 16:00:47;;;;;;;7.33;6.83;;;25.70;61.30;;;;;;10396207;28;20268;-78
2021/06/11 16:05:49;;;;;;;7.17;6.50;;;25.80;63.30;;;;;;10376375;28;20237;-79
2021/06/11 16:10:52;;;;;;;6.30;5.80;;;25.80;61.90;;;;;;10392292;28;20225;-79
2021/06/11 16:15:54;;;;;;;7.47;6.97;;;25.90;61.10;;;;;;10421426;28;20229;-77
2021/06/11 16:20:56;;;;;;;6.70;6.20;;;25.90;61.00;;;;;;10406086;28;20249;-78
2021/06/11 16:25:59;;;;;;;6.47;6.07;;;25.80;59.90;;;;;;10403140;28;20685;-78
2021/06/11 16:31:02;;;;;;;5.10;4.80;;;25.70;62.40;;;;;;10420077;28;20214;-78
2021/06/11 16:36:06;;;;;;;5.87;5.47;;;25.60;60.50;;;;;;10373324;28;20214;-78
2021/06/11 16:41:09;;;;;;;5.70;5.30;;;25.60;60.30;;;;;;10389364;28;20222;-78
2021/06/11 16:46:11;;;;;;;6.90;6.33;;;25.50;62.20;;;;;;10390657;28;20623;-79
2021/06/11 16:51:12;;;;;;;5.23;4.93;;;25.50;59.10;;;;;;10482710;22;20247;-81
2021/06/11 16:56:15;;;;;;;5.10;4.80;;;25.50;59.50;;;;;;10540863;28;20204;-81
2021/06/11 17:01:21;;;;;;;5.27;4.77;;;25.50;59.30;;;;;;10535526;28;20311;-81
2021/06/11 17:06:26;;;;;;;4.67;4.37;;;25.50;62.50;;;;;;10549561;28;20200;-81
2021/06/11 17:11:29;;;;;;;4.90;4.50;;;25.40;60.40;;;;;;10531424;28;20218;-81
2021/06/11 17:16:31;;;;;;;4.23;4.03;;;25.30;59.20;;;;;;10506392;28;20256;-81
2021/06/11 17:21:32;;;;;;;3.20;3.00;;;25.20;59.00;;;;;;10522901;28;20739;-81
2021/06/11 17:26:42;;;;;;;2.90;2.70;;;25.20;58.20;;;;;;10526844;28;20188;-81
2021/06/11 17:31:44;;;;;;;3.07;2.90;;;25.20;56.00;;;;;;10523346;28;20752;-81
2021/06/11 17:36:46;;;;;;;3.83;3.53;;;25.20;58.10;;;;;;10524457;28;20237;-81
2021/06/11 17:41:52;;;;;;;13.33;3.67;;;25.10;62.10;;;;;;10521709;28;20248;-81
2021/06/11 17:46:56;;;;;;;3.30;3.10;;;25.00;58.60;;;;;;10518502;28;20275;-81
2021/06/11 17:51:59;;;;;;;3.43;3.23;;;24.90;56.90;;;;;;10525481;28;20310;-82
2021/06/11 17:57:04;;;;;;;3.40;3.20;;;24.90;63.00;;;;;;10529869;28;20224;-81
2021/06/11 18:02:07;;;;;;;4.70;3.40;;;24.80;62.70;;;;;;10524975;28;20220;-82
2021/06/11 18:07:11;;;;;;;3.73;3.20;;;24.80;61.40;;;;;;10513546;28;20261;-81
2021/06/11 18:12:19;;;;;;;4.40;4.00;;;24.70;64.90;;;;;;10528661;28;20289;-81
2021/06/11 18:17:23;;;;;;;4.07;3.87;;;24.60;71.70;;;;;;10528385;28;20680;-81
2021/06/11 18:22:37;;;;;;;4.40;4.10;;;24.50;68.50;;;;;;10533711;28;20224;-81
2021/06/11 18:27:40;;;;;;;4.63;4.33;;;24.40;72.00;;;;;;10537748;28;20211;-81
2021/06/11 18:32:44;;;;;;;4.60;4.30;;;24.30;72.30;;;;;;10541228;28;20212;-81
2021/06/11 18:37:48;;;;;;;6.77;6.17;;;24.20;71.60;;;;;;10541383;28;20223;-81
2021/06/11 18:42:54;;;;;;;4.87;4.50;;;24.20;70.10;;;;;;10546802;28;20239;-81
2021/06/11 18:48:03;;;;;;;4.37;4.17;;;24.20;68.70;;;;;;10545091;28;20679;-81
2021/06/11 18:53:05;;;;;;;4.50;4.20;;;24.20;70.10;;;;;;10540732;28;20635;-81
2021/06/11 18:58:11;;;;;;;4.70;4.40;;;24.10;70.50;;;;;;10545906;28;20200;-81
2021/06/11 19:03:19;;;;;;;4.47;4.17;;;24.00;70.50;;;;;;10534889;28;20269;-80
2021/06/11 19:08:38;;;;;;;5.43;5.00;;;23.90;72.00;;;;;;10551602;28;20206;-81
2021/06/11 19:13:41;;;;;;;5.17;4.77;;;23.80;71.60;;;;;;10535255;28;20298;-80
2021/06/11 19:18:56;;;;;;;6.23;4.90;;;23.70;71.60;;;;;;10529104;28;20237;-80
2021/06/11 19:24:13;;;;;;;4.90;4.60;;;23.50;73.30;;;;;;10544219;28;20231;-80
2021/06/11 19:29:35;;;;;;;5.23;4.93;;;23.40;73.50;;;;;;10525422;28;20227;-81
2021/06/11 19:34:38;;;;;;;5.13;4.83;;;23.30;74.20;;;;;;10533087;28;20192;-81
2021/06/11 19:39:51;;;;;;;5.00;4.60;;;23.20;74.70;;;;;;10539930;28;20932;-81
2021/06/11 19:45:11;;;;;;;6.03;5.00;;;23.10;75.40;;;;;;10549080;28;20226;-81
2021/06/11 19:50:14;;;;;;;6.13;5.60;;;23.00;75.40;;;;;;10549761;28;20367;-81
2021/06/11 19:55:39;;;;;;;5.20;4.90;;;22.90;76.30;;;;;;10552925;28;20211;-81
2021/06/11 20:00:45;;;;;;;6.57;5.97;;;22.80;76.30;;;;;;10552094;28;20211;-81
2021/06/11 20:05:52;;;;;;;6.30;5.80;;;22.70;77.40;;;;;;10536771;28;20223;-80
2021/06/11 20:10:57;;;;;;;5.83;5.50;;;22.70;77.60;;;;;;10554071;28;20298;-81
2021/06/11 20:16:00;;;;;;;7.73;7.10;;;22.60;78.00;;;;;;10551437;28;20211;-81
2021/06/11 20:21:03;;;;;;;10.73;7.80;;;22.50;79.40;;;;;;10549462;28;20240;-81
2021/06/11 20:26:04;;;;;;;7.23;6.70;;;22.40;80.00;;;;;;10546220;28;20687;-81
2021/06/11 20:31:11;;;;;;;9.97;7.43;;;22.30;80.30;;;;;;10542430;28;20227;-81
2021/06/11 20:36:13;;;;;;;8.93;7.40;;;22.20;81.80;;;;;;10555627;28;20207;-81
2021/06/11 20:41:14;;;;;;;7.77;7.23;;;22.20;82.90;;;;;;10552377;28;20212;-81
2021/06/11 20:46:23;;;;;;;7.43;6.83;;;22.10;83.70;;;;;;10556599;28;20210;-81
2021/06/11 20:51:25;;;;;;;7.23;6.70;;;22.10;84.60;;;;;;10555594;28;20255;-80
2021/06/11 20:56:27;;;;;;;7.93;7.23;;;22.10;85.30;;;;;;10530737;28;20284;-81
2021/06/11 21:01:30;;;;;;;7.90;7.30;;;22.10;86.30;;;;;;10542810;28;20312;-81
2021/06/11 21:06:33;;;;;;;7.47;6.93;;;22.10;86.80;;;;;;10544510;28;20227;-81
2021/06/11 21:11:34;;;;;;;7.87;7.27;;;22.00;87.10;;;;;;10525445;28;20253;-81
2021/06/11 21:16:37;;;;;;;7.77;7.27;;;22.00;88.00;;;;;;10549664;28;20199;-81
2021/06/11 21:21:44;;;;;;;8.13;7.37;;;21.90;88.10;;;;;;10540799;28;20604;-81
2021/06/11 21:26:45;;;;;;;8.90;8.07;;;21.80;88.60;;;;;;10546477;28;20203;-81
2021/06/11 21:31:48;;;;;;;8.20;7.50;;;21.80;89.30;;;;;;10549670;28;20223;-81
2021/06/11 21:36:50;;;;;;;9.17;8.43;;;21.80;88.90;;;;;;10549153;28;20406;-81
2021/06/11 21:41:52;;;;;;;9.13;8.53;;;21.80;89.10;;;;;;10534369;28;20250;-79
2021/06/11 21:46:55;;;;;;;8.80;8.10;;;21.70;88.80;;;;;;10548571;28;20200;-79
2021/06/11 21:51:57;;;;;;;8.77;8.07;;;21.70;88.80;;;;;;10548906;28;20219;-79
2021/06/11 21:57:00;;;;;;;8.03;7.50;;;21.60;89.80;;;;;;10546221;28;20279;-79
2021/06/11 22:02:04;;;;;;;8.37;7.57;;;21.50;90.50;;;;;;10539416;28;20220;-79
2021/06/11 22:07:06;;;;;;;8.20;7.60;;;21.50;91.00;;;;;;10545077;28;20195;-79
2021/06/11 22:12:10;;;;;;;8.20;7.60;;;21.50;90.60;;;;;;10531118;28;20219;-79
2021/06/11 22:17:13;;;;;;;8.50;7.90;;;21.50;91.30;;;;;;10537997;28;20204;-79
2021/06/11 22:22:14;;;;;;;7.67;7.10;;;21.50;91.70;;;;;;10539376;28;20759;-79
2021/06/11 22:27:16;;;;;;;7.90;7.30;;;21.40;92.30;;;;;;10536055;28;20299;-79
2021/06/11 22:32:19;;;;;;;7.70;7.10;;;21.40;92.00;;;;;;10544457;28;20211;-79
2021/06/11 22:37:21;;;;;;;7.77;7.10;;;21.40;91.30;;;;;;10532780;28;20237;-81
2021/06/11 22:42:32;;;;;;;8.40;7.77;;;21.40;92.30;;;;;;10546126;28;20307;-81
2021/06/11 22:47:36;;;;;;;7.97;7.40;;;21.40;92.40;;;;;;10534784;28;20703;-79
2021/06/11 22:52:38;;;;;;;9.30;8.37;;;21.40;92.70;;;;;;10519422;22;20327;-77
2021/06/11 22:57:42;;;;;;;11.43;10.37;;;21.40;92.40;;;;;;10494080;28;20196;-76
2021/06/11 23:02:45;;;;;;;9.63;8.93;;;21.40;91.80;;;;;;10476489;28;20220;-77
2021/06/11 23:07:46;;;;;;;9.47;8.50;;;21.40;92.90;;;;;;10498341;28;20312;-77
2021/06/11 23:12:48;;;;;;;9.30;8.60;;;21.40;92.60;;;;;;10493488;28;20212;-77
2021/06/11 23:17:51;;;;;;;9.50;8.53;;;21.40;93.70;;;;;;10494356;28;20210;-77
2021/06/11 23:22:53;;;;;;;9.47;8.67;;;21.40;93.30;;;;;;10492226;28;20669;-76
2021/06/11 23:27:54;;;;;;;8.50;8.00;;;21.30;93.40;;;;;;10493284;28;20226;-77
2021/06/11 23:32:58;;;;;;;8.03;7.53;;;21.30;94.10;;;;;;10494369;28;20327;-77
2021/06/11 23:37:59;;;;;;;8.40;7.90;;;21.30;94.00;;;;;;10494320;28;20201;-77
2021/06/11 23:43:02;;;;;;;10.67;9.77;;;21.30;94.50;;;;;;10494113;28;20663;-77
2021/06/11 23:48:06;;;;;;;9.90;9.10;;;21.20;94.50;;;;;;10493646;28;20200;-77
2021/06/11 23:53:07;;;;;;;9.60;8.90;;;21.20;94.90;;;;;;10470873;28;20232;-77
2021/06/11 23:58:10;;;;;;;11.50;10.60;;;21.10;95.50;;;;;;10492654;28;20200;-77
